createdAt,value
2019-02-05T00:02:07.110Z,99.90
2019-02-05T00:05:08.029Z,99.90
2019-02-05T00:07:56.726Z,99.90
2019-02-05T00:13:58.756Z,99.90
2019-02-05T00:17:06.697Z,99.90
2019-02-05T00:20:07.121Z,99.90
2019-02-05T00:23:08.437Z,99.90
2019-02-05T00:26:09.146Z,99.90
2019-02-05T00:29:10.177Z,99.90
2019-02-05T00:31:58.914Z,99.90
2019-02-05T00:35:07.046Z,99.90
2019-02-05T00:38:08.105Z,99.90
2019-02-05T00:41:08.724Z,99.90
2019-02-05T00:44:09.352Z,99.90
2019-02-05T00:47:09.746Z,99.90
2019-02-05T00:50:10.321Z,99.90
2019-02-05T00:53:10.594Z,99.90
2019-02-05T00:56:17.677Z,99.90
2019-02-05T00:59:14.372Z,99.90
2019-02-05T01:02:03.097Z,99.90
2019-02-05T01:05:11.121Z,99.90
2019-02-05T01:08:19.194Z,99.90
2019-02-05T01:11:19.610Z,99.90
2019-02-05T01:14:20.086Z,99.90
2019-02-05T01:17:20.347Z,99.90
2019-02-05T01:20:21.077Z,99.90
2019-02-05T01:23:21.361Z,99.90
2019-02-05T01:26:28.934Z,99.90
2019-02-05T01:29:24.286Z,99.90
2019-02-05T01:32:24.824Z,99.90
2019-02-05T01:35:25.694Z,99.90
2019-02-05T01:38:26.960Z,99.90
2019-02-05T01:41:27.498Z,99.90
2019-02-05T01:44:28.789Z,99.90
2019-02-05T01:47:29.438Z,99.90
2019-02-05T01:50:29.958Z,99.90
2019-02-05T01:53:30.695Z,99.90
2019-02-05T01:56:40.486Z,99.90
2019-02-05T01:59:33.345Z,99.90
2019-02-05T02:02:34.066Z,99.90
2019-02-05T02:05:34.895Z,99.90
2019-02-05T02:08:35.766Z,99.90
2019-02-05T02:11:36.435Z,99.90
2019-02-05T02:14:36.806Z,99.90
2019-02-05T02:17:37.413Z,99.90
2019-02-05T02:20:37.844Z,99.90
2019-02-05T02:23:38.310Z,99.90
2019-02-05T02:26:38.703Z,99.90
2019-02-05T02:29:39.254Z,99.90
2019-02-05T02:32:40.733Z,99.90
2019-02-05T02:35:41.311Z,99.90
2019-02-05T02:38:42.560Z,99.90
2019-02-05T02:41:43.021Z,99.90
2019-02-05T02:44:43.828Z,99.90
2019-02-05T02:47:44.184Z,99.90
2019-02-05T02:50:44.722Z,99.90
2019-02-05T02:53:45.085Z,99.90
2019-02-05T02:56:45.991Z,99.90
2019-02-05T02:59:46.801Z,99.90
2019-02-05T03:02:47.489Z,99.90
2019-02-05T03:05:48.142Z,99.90
2019-02-05T03:08:48.722Z,99.90
2019-02-05T03:11:49.706Z,99.90
2019-02-05T03:14:50.816Z,99.90
2019-02-05T03:17:51.715Z,99.90
2019-02-05T03:20:52.592Z,99.90
2019-02-05T03:23:53.751Z,99.90
2019-02-05T03:26:55.347Z,99.90
2019-02-05T03:29:55.774Z,99.90
2019-02-05T03:32:56.237Z,99.90
2019-02-05T03:35:56.975Z,99.90
2019-02-05T03:38:57.575Z,99.90
2019-02-05T03:41:58.910Z,99.90
2019-02-05T03:45:00.341Z,99.90
2019-02-05T03:48:01.603Z,99.90
2019-02-05T03:51:02.507Z,99.90
2019-02-05T03:54:02.875Z,99.90
2019-02-05T03:57:04.249Z,99.90
2019-02-05T04:00:05.472Z,99.90
2019-02-05T04:03:06.614Z,99.90
2019-02-05T04:06:07.118Z,99.90
2019-02-05T04:09:07.782Z,99.90
2019-02-05T04:12:08.054Z,99.90
2019-02-05T04:15:08.799Z,99.90
2019-02-05T04:18:09.361Z,99.90
2019-02-05T04:21:17.787Z,99.90
2019-02-05T04:24:18.174Z,99.90
2019-02-05T04:27:18.459Z,99.90
2019-02-05T04:30:19.192Z,99.90
2019-02-05T04:33:19.771Z,99.90
2019-02-05T04:36:20.085Z,99.90
2019-02-05T04:39:20.615Z,99.90
2019-02-05T04:42:21.200Z,99.90
2019-02-05T04:45:33.377Z,99.90
2019-02-05T04:48:24.364Z,99.90
2019-02-05T04:51:25.255Z,99.90
2019-02-05T04:54:26.303Z,99.90
2019-02-05T04:57:27.127Z,99.90
2019-02-05T05:00:27.510Z,99.90
2019-02-05T05:03:28.013Z,99.90
2019-02-05T05:06:28.606Z,99.90
2019-02-05T05:09:29.241Z,99.90
2019-02-05T05:12:30.185Z,99.90
2019-02-05T05:15:30.669Z,99.90
2019-02-05T05:18:31.761Z,99.90
2019-02-05T05:21:32.192Z,99.90
2019-02-05T05:24:32.599Z,99.90
2019-02-05T05:27:33.664Z,99.90
2019-02-05T05:30:35.010Z,99.90
2019-02-05T05:33:42.982Z,99.90
2019-02-05T05:36:50.450Z,99.90
2019-02-05T05:39:50.902Z,99.90
2019-02-05T05:42:51.752Z,99.90
2019-02-05T05:45:52.339Z,99.90
2019-02-05T05:48:52.783Z,99.90
2019-02-05T05:51:53.359Z,99.90
2019-02-05T05:54:53.867Z,99.90
2019-02-05T05:57:54.508Z,99.90
2019-02-05T06:00:55.014Z,99.90
2019-02-05T06:03:55.636Z,99.90
2019-02-05T06:06:56.555Z,99.90
2019-02-05T06:09:57.172Z,99.90
2019-02-05T06:12:58.784Z,99.90
2019-02-05T06:15:59.229Z,99.90
2019-02-05T06:19:00.053Z,99.90
2019-02-05T06:22:00.531Z,99.90
2019-02-05T06:25:02.041Z,99.90
2019-02-05T06:28:03.533Z,99.90
2019-02-05T06:31:04.188Z,99.90
2019-02-05T06:34:04.632Z,99.90
2019-02-05T06:37:05.123Z,99.90
2019-02-05T06:40:05.712Z,99.90
2019-02-05T06:43:06.274Z,99.90
2019-02-05T06:46:06.715Z,99.90
2019-02-05T06:49:07.481Z,99.90
2019-02-05T06:52:08.305Z,99.90
2019-02-05T06:55:09.239Z,99.90
2019-02-05T06:58:10.618Z,99.90
2019-02-05T07:01:10.913Z,99.90
2019-02-05T07:04:11.238Z,99.90
2019-02-05T07:07:12.527Z,99.90
2019-02-05T07:10:13.707Z,99.90
2019-02-05T07:13:14.878Z,99.90
2019-02-05T07:16:15.956Z,99.90
2019-02-05T07:19:16.465Z,99.90
2019-02-05T07:22:17.197Z,99.90
2019-02-05T07:25:18.139Z,99.90
2019-02-05T07:28:18.462Z,99.90
2019-02-05T07:31:19.205Z,99.90
2019-02-05T07:34:21.287Z,99.90
2019-02-05T07:37:21.976Z,99.90
2019-02-05T07:40:23.244Z,99.90
2019-02-05T07:43:23.757Z,99.90
2019-02-05T07:46:24.454Z,99.90
2019-02-05T07:49:24.828Z,99.90
2019-02-05T07:52:26.376Z,99.90
2019-02-05T07:55:26.899Z,99.90
2019-02-05T07:58:27.593Z,99.90
2019-02-05T08:01:27.953Z,99.90
2019-02-05T08:04:28.472Z,99.90
2019-02-05T08:07:29.369Z,99.90
2019-02-05T08:10:30.185Z,99.90
2019-02-05T08:13:30.604Z,99.90
2019-02-05T08:16:33.878Z,99.90
2019-02-05T08:19:33.312Z,99.90
2019-02-05T08:22:34.233Z,99.90
2019-02-05T08:25:34.870Z,99.90
2019-02-05T08:28:41.070Z,99.90
2019-02-05T08:31:38.908Z,99.90
2019-02-05T08:34:39.663Z,99.90
2019-02-05T08:37:41.030Z,99.90
2019-02-05T08:40:42.163Z,99.90
2019-02-05T08:43:42.913Z,99.90
2019-02-05T08:46:43.713Z,99.90
2019-02-05T08:49:44.313Z,99.90
2019-02-05T08:52:45.384Z,99.90
2019-02-05T08:55:46.260Z,99.90
2019-02-05T08:58:47.550Z,99.90
2019-02-05T09:01:47.954Z,99.90
2019-02-05T09:04:48.620Z,99.90
2019-02-05T09:07:48.948Z,98.20
2019-02-05T09:10:49.553Z,95.60
2019-02-05T09:13:49.969Z,93.10
2019-02-05T09:16:50.780Z,92.40
2019-02-05T09:19:51.490Z,87.30
2019-02-05T09:22:52.028Z,86.00
2019-02-05T09:25:53.144Z,78.50
2019-02-05T09:28:53.533Z,75.70
2019-02-05T09:31:53.984Z,76.40
2019-02-05T09:34:54.474Z,72.40
2019-02-05T09:37:57.563Z,75.70
2019-02-05T09:40:57.215Z,74.30
2019-02-05T09:43:57.727Z,69.70
2019-02-05T09:46:58.329Z,69.50
2019-02-05T09:49:59.010Z,67.60
2019-02-05T09:52:59.504Z,64.70
2019-02-05T09:56:01.233Z,65.00
2019-02-05T09:59:02.812Z,63.90
2019-02-05T10:02:04.737Z,62.00
2019-02-05T10:04:53.991Z,63.20
2019-02-05T10:08:02.567Z,61.20
2019-02-05T10:11:04.305Z,56.80
2019-02-05T10:14:06.189Z,56.50
2019-02-05T10:17:08.049Z,57.00
2019-02-05T10:20:09.856Z,53.60
2019-02-05T10:23:11.193Z,51.30
2019-02-05T10:26:12.434Z,49.90
2019-02-05T10:29:13.478Z,47.10
2019-02-05T10:32:14.721Z,47.00
2019-02-05T10:35:16.469Z,47.10
2019-02-05T10:38:18.710Z,47.20
2019-02-05T10:41:20.530Z,47.40
2019-02-05T10:44:22.297Z,44.70
2019-02-05T10:47:23.926Z,43.60
2019-02-05T10:50:25.652Z,43.20
2019-02-05T10:53:27.070Z,43.90
2019-02-05T10:56:28.470Z,42.00
2019-02-05T10:59:29.968Z,42.90
2019-02-05T11:02:31.793Z,41.90
2019-02-05T11:05:33.394Z,41.80
2019-02-05T11:08:35.127Z,39.80
2019-02-05T11:11:36.474Z,40.90
2019-02-05T11:14:38.331Z,40.90
2019-02-05T11:17:39.880Z,39.30
2019-02-05T11:20:41.594Z,38.40
2019-02-05T11:23:43.182Z,38.90
2019-02-05T11:26:44.961Z,37.30
2019-02-05T11:29:46.662Z,36.70
2019-02-05T11:32:48.469Z,36.20
2019-02-05T11:35:50.281Z,36.70
2019-02-05T11:38:52.702Z,37.00
2019-02-05T11:41:54.123Z,36.10
2019-02-05T11:44:55.407Z,35.70
2019-02-05T11:47:56.436Z,34.90
2019-02-05T11:50:57.984Z,33.80
2019-02-05T11:53:59.650Z,33.70
2019-02-05T11:57:00.966Z,32.50
2019-02-05T12:00:02.012Z,35.60
2019-02-05T12:03:03.772Z,37.10
2019-02-05T12:06:05.534Z,35.00
2019-02-05T12:09:07.165Z,33.50
2019-02-05T12:12:08.906Z,33.60
2019-02-05T12:15:10.797Z,34.40
2019-02-05T12:18:12.289Z,33.60
2019-02-05T12:21:13.835Z,34.20
2019-02-05T12:24:15.612Z,33.80
2019-02-05T12:27:16.467Z,32.40
2019-02-05T12:30:17.890Z,32.00
2019-02-05T12:33:19.193Z,31.70
2019-02-05T12:36:28.092Z,31.40
2019-02-05T12:39:36.262Z,31.20
2019-02-05T12:42:37.859Z,31.80
2019-02-05T12:45:39.613Z,31.40
2019-02-05T12:48:41.486Z,31.70
2019-02-05T12:51:42.925Z,32.20
2019-02-05T12:54:44.245Z,31.50
2019-02-05T12:57:45.649Z,31.80
2019-02-05T13:00:56.640Z,31.90
2019-02-05T13:03:50.913Z,32.30
2019-02-05T13:06:52.389Z,32.20
2019-02-05T13:09:53.432Z,33.60
2019-02-05T13:12:55.238Z,32.60
2019-02-05T13:15:56.869Z,33.90
2019-02-05T13:18:58.646Z,32.80
2019-02-05T13:22:00.249Z,33.10
2019-02-05T13:25:01.487Z,32.60
2019-02-05T13:28:03.229Z,33.10
2019-02-05T13:31:08.184Z,33.00
2019-02-05T13:34:07.213Z,33.10
2019-02-05T13:37:08.621Z,31.90
2019-02-05T13:40:10.164Z,33.80
2019-02-05T13:43:11.737Z,32.80
2019-02-05T13:46:13.459Z,32.50
2019-02-05T13:49:18.497Z,34.50
2019-02-05T13:52:20.298Z,32.90
2019-02-05T13:55:22.071Z,32.30
2019-02-05T13:58:23.734Z,31.80
2019-02-05T14:01:25.460Z,32.60
2019-02-05T14:04:26.862Z,31.70
2019-02-05T14:07:28.100Z,31.80
2019-02-05T14:10:29.529Z,32.20
2019-02-05T14:13:30.713Z,31.10
2019-02-05T14:16:32.219Z,31.90
2019-02-05T14:19:33.490Z,33.00
2019-02-05T14:22:35.130Z,33.20
2019-02-05T14:25:36.531Z,33.00
2019-02-05T14:28:37.802Z,33.20
2019-02-05T14:31:39.490Z,32.80
2019-02-05T14:34:40.719Z,33.10
2019-02-05T14:37:41.960Z,33.30
2019-02-05T14:40:43.333Z,36.50
2019-02-05T14:43:44.873Z,37.60
2019-02-05T14:46:46.353Z,37.10
2019-02-05T14:49:47.354Z,36.00
2019-02-05T14:52:49.239Z,35.60
2019-02-05T14:55:50.377Z,35.20
2019-02-05T14:58:51.963Z,34.50
2019-02-05T15:01:53.525Z,34.70
2019-02-05T15:04:54.716Z,34.40
2019-02-05T15:07:56.356Z,34.40
2019-02-05T15:10:57.939Z,35.80
2019-02-05T15:13:59.441Z,36.40
2019-02-05T15:17:00.767Z,37.90
2019-02-05T15:20:02.381Z,38.80
2019-02-05T15:23:03.829Z,40.10
2019-02-05T15:26:05.169Z,40.60
2019-02-05T15:29:07.044Z,41.00
2019-02-05T15:32:08.110Z,41.70
2019-02-05T15:35:09.069Z,41.30
2019-02-05T15:38:09.903Z,41.40
2019-02-05T15:41:11.443Z,43.20
2019-02-05T15:44:12.712Z,45.20
2019-02-05T15:47:13.386Z,46.20
2019-02-05T15:50:15.035Z,46.40
2019-02-05T15:53:16.053Z,47.00
2019-02-05T15:56:16.752Z,47.00
2019-02-05T15:59:17.644Z,49.40
2019-02-05T16:02:18.298Z,50.20
2019-02-05T16:05:18.599Z,50.90
2019-02-05T16:08:19.249Z,51.80
2019-02-05T16:11:19.946Z,52.90
2019-02-05T16:14:20.364Z,53.40
2019-02-05T16:17:21.265Z,54.30
2019-02-05T16:20:22.999Z,53.90
2019-02-05T16:23:23.367Z,53.80
2019-02-05T16:26:24.672Z,54.80
2019-02-05T16:29:25.251Z,54.70
2019-02-05T16:32:26.380Z,55.20
2019-02-05T16:35:26.921Z,55.50
2019-02-05T16:38:27.528Z,56.70
2019-02-05T16:41:27.870Z,58.20
2019-02-05T16:44:28.193Z,59.10
2019-02-05T16:47:28.713Z,62.40
2019-02-05T16:50:29.175Z,64.50
2019-02-05T16:53:30.118Z,66.50
2019-02-05T16:56:30.464Z,75.00
2019-02-05T16:59:31.901Z,85.90
2019-02-05T17:02:28.695Z,87.90
2019-02-05T17:05:30.865Z,90.40
2019-02-05T17:08:31.338Z,91.10
2019-02-05T17:11:34.318Z,91.40
2019-02-05T17:14:42.257Z,91.20
2019-02-05T17:17:50.250Z,91.50
2019-02-05T17:20:50.523Z,91.80
2019-02-05T17:23:50.995Z,92.40
2019-02-05T17:26:51.673Z,93.80
2019-02-05T17:29:52.062Z,95.90
2019-02-05T17:32:52.672Z,96.70
2019-02-05T17:35:53.734Z,96.80
2019-02-05T17:38:54.049Z,99.90
2019-02-05T17:41:54.422Z,99.90
2019-02-05T17:44:54.966Z,99.90
2019-02-05T17:47:55.458Z,99.90
2019-02-05T17:50:56.123Z,99.90
2019-02-05T17:53:56.913Z,99.90
2019-02-05T17:56:57.657Z,99.90
2019-02-05T17:59:58.338Z,99.90
2019-02-05T18:02:59.062Z,99.90
2019-02-05T18:05:59.618Z,99.90
2019-02-05T18:09:00.059Z,99.90
2019-02-05T18:12:00.598Z,99.90
2019-02-05T18:15:01.342Z,99.90
2019-02-05T18:18:02.484Z,99.90
2019-02-05T18:21:03.241Z,99.90
2019-02-05T18:24:03.657Z,99.90
2019-02-05T18:27:04.227Z,99.90
2019-02-05T18:30:05.006Z,99.90
2019-02-05T18:33:06.044Z,99.90
2019-02-05T18:36:07.010Z,99.90
2019-02-05T18:39:07.847Z,99.90
2019-02-05T18:42:08.405Z,99.90
2019-02-05T18:45:08.766Z,99.90
2019-02-05T18:48:09.896Z,99.90
2019-02-05T18:51:10.780Z,99.90
2019-02-05T18:54:11.170Z,99.90
2019-02-05T18:57:11.473Z,99.90
2019-02-05T19:00:12.905Z,99.90
2019-02-05T19:03:16.150Z,99.90
2019-02-05T19:06:15.621Z,99.90
2019-02-05T19:09:16.968Z,99.90
2019-02-05T19:12:18.232Z,99.90
2019-02-05T19:15:18.767Z,99.90
2019-02-05T19:18:19.499Z,99.90
2019-02-05T19:21:20.134Z,99.90
2019-02-05T19:24:22.583Z,99.90
2019-02-05T19:27:23.351Z,99.90
2019-02-05T19:30:26.784Z,99.90
2019-02-05T19:33:27.666Z,99.90
2019-02-05T19:36:28.050Z,99.90
2019-02-05T19:39:28.401Z,99.90
2019-02-05T19:42:28.918Z,99.90
2019-02-05T19:45:48.622Z,99.90
2019-02-05T19:48:51.340Z,99.90
2019-02-05T19:51:52.517Z,99.90
2019-02-05T19:54:53.832Z,99.90
2019-02-05T19:57:55.312Z,99.90
2019-02-05T20:00:55.949Z,99.90
2019-02-05T20:03:56.608Z,99.90
2019-02-05T20:06:57.475Z,99.90
2019-02-05T20:09:58.090Z,99.90
2019-02-05T20:12:59.401Z,99.90
2019-02-05T20:15:59.836Z,99.90
2019-02-05T20:19:00.348Z,99.90
2019-02-05T20:22:00.916Z,99.90
2019-02-05T20:25:01.176Z,99.90
2019-02-05T20:28:09.346Z,99.90
2019-02-05T20:31:17.311Z,99.90
2019-02-05T20:34:17.813Z,99.90
2019-02-05T20:37:18.410Z,99.90
2019-02-05T20:40:18.878Z,99.90
2019-02-05T20:43:19.804Z,99.90
2019-02-05T20:46:20.599Z,99.90
2019-02-05T20:49:21.758Z,99.90
2019-02-05T20:52:23.481Z,99.90
2019-02-05T20:55:24.686Z,99.90
2019-02-05T20:58:25.254Z,99.90
2019-02-05T21:01:25.885Z,99.90
2019-02-05T21:04:26.406Z,99.90
2019-02-05T21:07:26.856Z,99.90
2019-02-05T21:10:27.743Z,99.90
2019-02-05T21:13:28.585Z,99.90
2019-02-05T21:16:29.402Z,99.90
2019-02-05T21:19:29.731Z,99.90
2019-02-05T21:22:31.128Z,99.90
2019-02-05T21:25:32.771Z,99.90
2019-02-05T21:28:33.939Z,99.90
2019-02-05T21:31:35.431Z,99.90
2019-02-05T21:34:36.678Z,99.90
2019-02-05T21:37:37.035Z,99.90
2019-02-05T21:40:37.696Z,99.90
2019-02-05T21:43:38.425Z,99.90
2019-02-05T21:46:39.081Z,99.90
2019-02-05T21:49:39.842Z,99.90
2019-02-05T21:52:41.043Z,99.90
2019-02-05T21:55:41.412Z,99.90
2019-02-05T21:58:42.629Z,99.90
2019-02-05T22:01:43.080Z,99.90
2019-02-05T22:04:44.313Z,99.90
2019-02-05T22:07:44.966Z,99.90
2019-02-05T22:10:45.593Z,99.90
2019-02-05T22:13:47.069Z,99.90
2019-02-05T22:16:47.529Z,99.90
2019-02-05T22:19:48.997Z,99.90
2019-02-05T22:22:49.956Z,99.90
2019-02-05T22:25:38.958Z,99.90
2019-02-05T22:28:46.882Z,99.90
2019-02-05T22:31:47.994Z,99.90
2019-02-05T22:34:49.145Z,99.90
2019-02-05T22:37:49.942Z,99.90
2019-02-05T22:40:51.199Z,99.90
2019-02-05T22:43:39.925Z,99.90
2019-02-05T22:46:47.888Z,99.90
2019-02-05T22:49:48.645Z,99.90
2019-02-05T22:52:49.218Z,99.90
2019-02-05T22:55:50.391Z,99.90
2019-02-05T22:58:51.250Z,99.90
2019-02-05T23:01:51.920Z,99.90
2019-02-05T23:08:15.078Z,99.90
2019-02-05T23:11:15.773Z,99.90
2019-02-05T23:14:16.512Z,99.90
2019-02-05T23:17:17.237Z,99.90
2019-02-05T23:20:17.847Z,99.90
2019-02-05T23:23:19.254Z,99.90
2019-02-05T23:26:20.401Z,99.90
2019-02-05T23:29:20.761Z,99.90
2019-02-05T23:32:21.336Z,99.90
2019-02-05T23:35:22.583Z,99.90
2019-02-05T23:38:29.438Z,99.90
2019-02-05T23:41:24.966Z,99.90
2019-02-05T23:44:26.173Z,99.90
2019-02-05T23:47:26.954Z,99.90
2019-02-05T23:50:27.693Z,99.90
2019-02-05T23:53:28.181Z,99.90
2019-02-05T23:56:28.648Z,99.90
2019-02-05T23:59:29.082Z,99.90
